Time;durP1;ratioP1;P1;durP2;ratioP2;P2;SDS_P1;SDS_P2;PMS_P1;PMS_P2;Temp;Humidity;BMP_temperature;BMP_pressure;BME280_temperature;BME280_humidity;BME280_pressure;Samples;Min_cycle;Max_cycle;Signal;HPM_P1;HPM_P2
2023/12/22 00:01:01;;;;;;;39.13;5.53;;;5.60;1.00;;;;;;5111124;28;20180;-51
2023/12/22 00:03:26;;;;;;;26.67;5.97;;;5.60;1.00;;;;;;5111806;28;20172;-51
2023/12/22 00:05:52;;;;;;;22.80;4.70;;;5.60;1.00;;;;;;5112062;28;20630;-51
2023/12/22 00:08:18;;;;;;;35.27;4.97;;;5.70;1.00;;;;;;5112186;28;20716;-51
2023/12/22 00:10:43;;;;;;;24.30;4.53;;;5.70;1.00;;;;;;5110472;28;20199;-51
2023/12/22 00:13:09;;;;;;;19.80;4.07;;;5.70;1.00;;;;;;5110800;28;20189;-51
2023/12/22 00:15:34;;;;;;;44.73;5.47;;;5.60;1.00;;;;;;5111600;28;20176;-51
2023/12/22 00:18:00;;;;;;;44.47;4.40;;;5.60;1.00;;;;;;5112062;28;20677;-51
2023/12/22 00:20:25;;;;;;;33.07;4.70;;;5.60;1.00;;;;;;5111532;28;20532;-51
2023/12/22 00:22:51;;;;;;;20.57;4.87;;;5.60;1.00;;;;;;5110988;28;20184;-52
2023/12/22 00:25:16;;;;;;;37.97;5.50;;;5.60;1.00;;;;;;5112039;28;20677;-51
2023/12/22 00:27:42;;;;;;;41.53;5.10;;;5.50;1.00;;;;;;5092837;28;20191;-52
2023/12/22 00:30:08;;;;;;;24.30;4.43;;;5.50;1.00;;;;;;5111306;28;20190;-51
2023/12/22 00:32:33;;;;;;;26.97;4.30;;;5.60;1.00;;;;;;5110662;28;20551;-52
2023/12/22 00:34:59;;;;;;;31.20;4.57;;;5.50;1.00;;;;;;5111544;28;20418;-51
2023/12/22 00:37:24;;;;;;;25.27;4.77;;;5.60;1.00;;;;;;5110779;28;20204;-51
2023/12/22 00:39:50;;;;;;;29.37;5.00;;;5.60;1.00;;;;;;5112049;28;20180;-51
2023/12/22 00:42:15;;;;;;;25.93;4.73;;;5.60;1.00;;;;;;5111235;28;20544;-52
2023/12/22 00:44:41;;;;;;;23.40;4.10;;;5.60;1.00;;;;;;5111180;28;20913;-51
2023/12/22 00:47:07;;;;;;;21.10;4.60;;;5.60;1.00;;;;;;5110654;28;20663;-52
2023/12/22 00:49:32;;;;;;;31.90;5.57;;;5.50;1.00;;;;;;5111348;28;20177;-52
2023/12/22 00:51:58;;;;;;;30.33;4.53;;;5.40;1.00;;;;;;5114198;28;20666;-51
2023/12/22 00:54:24;;;;;;;29.07;4.97;;;5.30;1.00;;;;;;5116040;28;20183;-52
2023/12/22 00:56:50;;;;;;;29.33;5.40;;;5.30;1.00;;;;;;5114439;28;20180;-51
2023/12/22 00:59:16;;;;;;;30.00;5.00;;;5.20;1.00;;;;;;5115017;28;20515;-52
2023/12/22 01:01:41;;;;;;;18.27;4.07;;;5.20;1.00;;;;;;5115535;28;20215;-52
2023/12/22 01:04:08;;;;;;;20.67;4.03;;;5.10;1.00;;;;;;5115400;28;20183;-52
2023/12/22 01:06:37;;;;;;;28.20;4.40;;;5.10;1.00;;;;;;5114964;28;20330;-52
2023/12/22 01:09:03;;;;;;;26.63;4.90;;;5.00;1.00;;;;;;5114113;28;20418;-52
2023/12/22 01:11:28;;;;;;;24.20;4.00;;;5.00;1.00;;;;;;5114445;28;20890;-51
2023/12/22 01:13:54;;;;;;;10.87;3.13;;;5.00;1.00;;;;;;5115245;28;20632;-52
2023/12/22 01:16:22;;;;;;;25.37;3.90;;;5.00;1.00;;;;;;5115325;28;20676;-52
2023/12/22 01:18:47;;;;;;;15.17;2.80;;;5.00;1.00;;;;;;5115117;28;20216;-51
2023/12/22 01:21:13;;;;;;;13.53;2.90;;;4.90;1.00;;;;;;5115149;28;21047;-52
2023/12/22 01:23:38;;;;;;;10.63;2.30;;;4.90;1.00;;;;;;5114608;28;20180;-52
2023/12/22 01:26:04;;;;;;;12.47;2.10;;;4.80;1.00;;;;;;5113601;28;20186;-51
2023/12/22 01:28:29;;;;;;;9.63;2.30;;;4.60;4.00;;;;;;5114896;28;20298;-52
2023/12/22 01:30:55;;;;;;;14.00;2.70;;;4.30;99.90;;;;;;5114813;28;20640;-52
2023/12/22 01:33:21;;;;;;;11.37;1.97;;;4.10;99.90;;;;;;5096303;28;20184;-51
2023/12/22 01:35:46;;;;;;;6.60;1.70;;;3.90;1.00;;;;;;5113487;28;20184;-52
2023/12/22 01:38:12;;;;;;;7.20;2.07;;;3.60;99.90;;;;;;5114540;28;20227;-51
2023/12/22 01:40:38;;;;;;;6.67;1.60;;;3.40;99.90;;;;;;5114820;28;20240;-51
2023/12/22 01:43:04;;;;;;;6.40;1.30;;;3.10;1.00;;;;;;5114323;28;20177;-52
2023/12/22 01:45:29;;;;;;;4.63;1.53;;;3.00;1.00;;;;;;5113387;28;20962;-52
2023/12/22 01:47:55;;;;;;;7.23;1.27;;;2.80;99.90;;;;;;5114930;28;20188;-51
2023/12/22 01:50:21;;;;;;;5.90;1.37;;;2.70;99.90;;;;;;5114463;28;20180;-52
2023/12/22 01:52:47;;;;;;;5.80;1.23;;;2.70;99.90;;;;;;5113953;28;20184;-51
2023/12/22 01:55:13;;;;;;;10.33;1.37;;;2.70;1.00;;;;;;5114503;28;20417;-51
2023/12/22 01:57:40;;;;;;;3.60;1.00;;;2.60;1.00;;;;;;5112565;28;21074;-51
2023/12/22 02:00:07;;;;;;;5.73;1.23;;;2.60;99.90;;;;;;5114545;28;20419;-51
2023/12/22 02:02:33;;;;;;;7.60;1.57;;;2.60;99.90;;;;;;5112870;28;20813;-51
2023/12/22 02:04:59;;;;;;;6.90;2.80;;;2.70;1.00;;;;;;5114047;28;20435;-51
2023/12/22 02:07:26;;;;;;;8.03;2.00;;;2.70;99.90;;;;;;5113795;28;20587;-51
2023/12/22 02:09:51;;;;;;;8.90;1.80;;;2.80;1.00;;;;;;5113610;28;20414;-51
2023/12/22 02:12:17;;;;;;;11.30;1.90;;;2.80;1.00;;;;;;5113735;28;20405;-51
2023/12/22 02:14:43;;;;;;;7.90;2.00;;;2.90;1.00;;;;;;5113205;28;20185;-51
2023/12/22 02:17:26;;;;;;;11.17;1.80;;;3.00;1.00;;;;;;5114308;28;20194;-51
2023/12/22 02:19:53;;;;;;;14.50;1.90;;;3.00;99.90;;;;;;5114200;28;20446;-52
2023/12/22 02:22:18;;;;;;;7.90;1.83;;;3.10;99.90;;;;;;5112968;28;20775;-51
2023/12/22 02:24:44;;;;;;;12.00;2.27;;;3.10;99.90;;;;;;5114150;28;20502;-51
2023/12/22 02:27:37;;;;;;;8.93;2.17;;;3.20;99.90;;;;;;5113945;28;20222;-51
2023/12/22 02:30:08;;;;;;;20.73;2.17;;;3.20;63.20;;;;;;5113132;28;20539;-51
2023/12/22 02:32:38;;;;;;;16.33;2.37;;;3.20;52.00;;;;;;5113300;28;20494;-51
2023/12/22 02:35:26;;;;;;;16.70;2.10;;;3.30;1.00;;;;;;5113646;28;20748;-51
2023/12/22 02:37:52;;;;;;;6.73;1.90;;;3.40;1.00;;;;;;5113576;28;20458;-52
2023/12/22 02:40:19;;;;;;;22.10;2.73;;;3.40;1.00;;;;;;5112916;28;20913;-52
2023/12/22 02:42:45;;;;;;;13.53;2.50;;;3.50;1.00;;;;;;5112785;28;20452;-51
2023/12/22 02:45:15;;;;;;;16.10;2.93;;;3.50;99.90;;;;;;5114347;28;20758;-52
2023/12/22 02:47:41;;;;;;;8.80;1.80;;;3.60;1.00;;;;;;5112971;28;20185;-51
2023/12/22 02:50:07;;;;;;;18.30;3.17;;;3.60;1.00;;;;;;5112582;28;21004;-52
2023/12/22 02:52:33;;;;;;;15.03;2.20;;;3.60;99.90;;;;;;5112470;28;20645;-52
2023/12/22 02:54:59;;;;;;;18.07;2.37;;;3.60;81.10;;;;;;5113668;28;20424;-51
2023/12/22 02:57:24;;;;;;;11.87;1.90;;;3.60;99.90;;;;;;5112824;28;20240;-52
2023/12/22 02:59:50;;;;;;;6.73;1.83;;;3.60;99.90;;;;;;5094544;28;20185;-51
2023/12/22 03:02:16;;;;;;;7.60;1.23;;;3.50;99.90;;;;;;5112704;28;20167;-52
2023/12/22 03:04:41;;;;;;;4.20;1.20;;;3.50;1.00;;;;;;5112451;28;20189;-51
2023/12/22 03:07:07;;;;;;;4.00;1.23;;;3.40;99.90;;;;;;5112112;28;20266;-52
2023/12/22 03:09:34;;;;;;;4.20;1.00;;;3.30;93.00;;;;;;5113028;28;20529;-52
2023/12/22 03:12:01;;;;;;;3.63;1.30;;;3.20;1.00;;;;;;5112283;28;20198;-52
2023/12/22 03:14:32;;;;;;;2.83;1.07;;;3.10;99.90;;;;;;5111811;28;20939;-51
2023/12/22 03:17:02;;;;;;;1.80;0.83;;;3.00;99.90;;;;;;5112796;28;20409;-52
2023/12/22 03:19:27;;;;;;;7.70;1.13;;;2.90;94.00;;;;;;5112649;28;20485;-51
2023/12/22 03:21:53;;;;;;;4.10;1.00;;;2.90;1.00;;;;;;5112621;28;20794;-51
2023/12/22 03:24:19;;;;;;;2.90;1.03;;;2.90;1.40;;;;;;5112082;28;20269;-52
2023/12/22 03:26:48;;;;;;;6.33;1.10;;;2.90;99.90;;;;;;5111804;28;20180;-52
2023/12/22 03:29:14;;;;;;;3.30;1.03;;;2.90;1.00;;;;;;5112761;28;20651;-51
2023/12/22 03:31:40;;;;;;;6.87;1.10;;;2.90;1.00;;;;;;5112426;28;20413;-51
2023/12/22 03:34:05;;;;;;;2.40;1.13;;;2.90;1.00;;;;;;5111837;28;20176;-51
2023/12/22 03:36:31;;;;;;;4.50;1.10;;;2.80;1.00;;;;;;5111548;28;20176;-51
2023/12/22 03:38:57;;;;;;;5.77;1.30;;;2.80;1.00;;;;;;5112725;28;20783;-51
2023/12/22 03:41:22;;;;;;;5.23;1.23;;;2.80;1.00;;;;;;5112993;28;20188;-52
2023/12/22 03:43:48;;;;;;;5.30;1.00;;;2.80;1.00;;;;;;5112194;28;20182;-52
2023/12/22 03:46:14;;;;;;;3.23;1.20;;;2.90;99.90;;;;;;5111937;28;20923;-52
2023/12/22 03:48:39;;;;;;;8.63;1.60;;;2.90;99.90;;;;;;5110710;28;20516;-51
2023/12/22 03:51:05;;;;;;;6.07;1.30;;;2.90;99.90;;;;;;5112199;28;20211;-52
2023/12/22 03:53:30;;;;;;;7.57;1.93;;;3.00;99.90;;;;;;5111924;28;20173;-52
2023/12/22 03:55:56;;;;;;;8.67;1.60;;;3.10;99.90;;;;;;5111618;28;20187;-52
2023/12/22 03:58:21;;;;;;;11.07;1.77;;;3.10;1.00;;;;;;5111794;28;20253;-52
2023/12/22 04:00:47;;;;;;;6.40;1.70;;;3.20;1.00;;;;;;5111676;28;20188;-51
2023/12/22 04:03:13;;;;;;;9.50;1.33;;;3.20;1.00;;;;;;5111817;28;20538;-52
2023/12/22 04:05:38;;;;;;;9.67;1.73;;;3.20;1.00;;;;;;5111728;28;20303;-52
2023/12/22 04:08:05;;;;;;;16.60;2.13;;;3.30;1.00;;;;;;5111789;28;20458;-51
2023/12/22 04:10:30;;;;;;;12.13;3.00;;;3.40;1.00;;;;;;5110640;28;20216;-52
2023/12/22 04:12:56;;;;;;;9.83;2.37;;;3.60;1.00;;;;;;5110319;28;20504;-51
2023/12/22 04:15:22;;;;;;;14.30;1.90;;;3.70;99.90;;;;;;5111923;28;20206;-51
2023/12/22 04:17:47;;;;;;;14.10;2.70;;;3.80;1.00;;;;;;5111752;28;20564;-51
2023/12/22 04:20:13;;;;;;;15.40;2.60;;;3.90;99.90;;;;;;5112442;28;20238;-52
2023/12/22 04:22:39;;;;;;;17.00;2.30;;;3.80;99.90;;;;;;5110722;28;20235;-51
2023/12/22 04:25:06;;;;;;;17.10;2.83;;;3.90;99.90;;;;;;5111052;28;20181;-51
2023/12/22 04:27:31;;;;;;;14.83;2.40;;;3.90;99.90;;;;;;5117906;28;20185;-51
2023/12/22 04:29:57;;;;;;;9.70;2.03;;;3.90;99.90;;;;;;5119318;28;20961;-51
2023/12/22 04:32:23;;;;;;;14.00;3.00;;;3.90;99.90;;;;;;5118508;28;20222;-51
2023/12/22 04:34:48;;;;;;;9.70;2.33;;;3.90;99.90;;;;;;5118551;28;20172;-51
2023/12/22 04:37:14;;;;;;;6.63;1.97;;;3.90;99.90;;;;;;5117751;28;20190;-51
2023/12/22 04:39:40;;;;;;;17.13;2.50;;;3.90;99.90;;;;;;5118061;28;20196;-51
2023/12/22 04:42:05;;;;;;;12.57;2.57;;;3.90;99.90;;;;;;5118472;28;20736;-51
2023/12/22 04:44:31;;;;;;;16.57;2.07;;;4.00;99.90;;;;;;5118293;28;20501;-51
2023/12/22 04:46:56;;;;;;;11.23;2.37;;;4.00;99.90;;;;;;5117647;28;20673;-51
2023/12/22 04:49:22;;;;;;;17.67;2.60;;;4.00;99.90;;;;;;5118612;28;20541;-51
2023/12/22 04:51:48;;;;;;;13.03;2.43;;;4.00;99.90;;;;;;5118625;28;20313;-51
2023/12/22 04:54:13;;;;;;;14.00;2.53;;;4.10;98.10;;;;;;5118270;28;20185;-51
2023/12/22 04:56:39;;;;;;;6.93;1.70;;;4.20;29.60;;;;;;5116975;28;20358;-51
2023/12/22 04:59:04;;;;;;;11.50;2.60;;;4.20;12.90;;;;;;5117915;28;20200;-51
2023/12/22 05:01:30;;;;;;;12.17;2.20;;;4.30;1.00;;;;;;5118183;28;20526;-52
2023/12/22 05:03:55;;;;;;;16.93;2.30;;;4.30;1.00;;;;;;5118833;28;20641;-51
2023/12/22 05:06:21;;;;;;;13.73;2.73;;;4.40;1.00;;;;;;5117322;28;20256;-51
2023/12/22 05:08:46;;;;;;;14.07;2.40;;;4.40;20.70;;;;;;5117407;28;20652;-52
2023/12/22 05:11:12;;;;;;;12.67;2.93;;;4.40;82.10;;;;;;5117230;28;20176;-52
2023/12/22 05:13:38;;;;;;;18.97;2.23;;;4.30;99.90;;;;;;5117964;28;20683;-52
2023/12/22 05:16:04;;;;;;;11.43;1.70;;;4.20;99.90;;;;;;5117135;28;20636;-52
2023/12/22 05:18:30;;;;;;;7.53;1.90;;;4.00;99.90;;;;;;5118033;28;20245;-52
2023/12/22 05:20:55;;;;;;;10.37;1.80;;;3.80;99.90;;;;;;5117093;28;20902;-52
2023/12/22 05:23:21;;;;;;;14.70;2.40;;;3.60;99.90;;;;;;5117354;28;20177;-51
2023/12/22 05:25:47;;;;;;;7.60;2.27;;;3.50;99.90;;;;;;5117732;28;20220;-52
2023/12/22 05:28:12;;;;;;;8.80;1.83;;;3.40;99.90;;;;;;5117689;28;20454;-51
2023/12/22 05:30:38;;;;;;;11.20;2.30;;;3.30;99.90;;;;;;5117847;28;20186;-51
2023/12/22 05:33:04;;;;;;;13.00;2.37;;;3.20;1.00;;;;;;5116964;28;20173;-51
2023/12/22 05:35:29;;;;;;;8.87;1.60;;;3.20;1.00;;;;;;5117745;28;20180;-51
2023/12/22 05:37:55;;;;;;;16.43;2.53;;;3.20;99.90;;;;;;5115603;28;20675;-51
2023/12/22 05:40:20;;;;;;;18.13;3.20;;;3.20;1.00;;;;;;5113987;28;20268;-52
2023/12/22 05:42:46;;;;;;;17.60;3.27;;;3.20;1.00;;;;;;5114518;28;20208;-53
2023/12/22 05:45:12;;;;;;;11.53;2.23;;;3.30;99.90;;;;;;5114559;28;20185;-52
2023/12/22 05:47:37;;;;;;;6.23;1.70;;;3.20;99.90;;;;;;5113421;28;20188;-52
2023/12/22 05:50:04;;;;;;;11.97;1.77;;;3.00;1.00;;;;;;5113776;28;20414;-51
2023/12/22 05:52:29;;;;;;;9.10;2.10;;;2.80;99.90;;;;;;5114671;28;20244;-52
2023/12/22 05:54:55;;;;;;;14.50;2.17;;;2.70;1.00;;;;;;5114031;28;20411;-51
2023/12/22 05:57:20;;;;;;;11.37;1.57;;;2.60;1.00;;;;;;5114564;28;20253;-51
2023/12/22 05:59:46;;;;;;;9.23;1.93;;;2.40;1.00;;;;;;5114014;28;20280;-51
2023/12/22 06:02:13;;;;;;;6.07;1.50;;;2.40;1.00;;;;;;5112800;28;20185;-52
2023/12/22 06:04:38;;;;;;;18.57;1.80;;;2.30;1.00;;;;;;5114388;28;20200;-51
2023/12/22 06:07:04;;;;;;;9.37;1.77;;;2.20;99.90;;;;;;5113625;28;20956;-51
2023/12/22 06:09:30;;;;;;;4.97;1.43;;;2.20;1.00;;;;;;5113530;28;20192;-51
2023/12/22 06:11:55;;;;;;;8.73;1.40;;;2.20;99.90;;;;;;5113416;28;20422;-51
2023/12/22 06:14:21;;;;;;;8.23;1.60;;;2.30;99.90;;;;;;5113379;28;20184;-51
2023/12/22 06:16:47;;;;;;;11.37;1.77;;;2.30;99.90;;;;;;5113359;28;20180;-52
2023/12/22 06:19:13;;;;;;;6.63;1.30;;;2.30;1.00;;;;;;5113994;28;20199;-52
2023/12/22 06:21:38;;;;;;;12.00;2.20;;;2.30;99.90;;;;;;5114376;28;20234;-52
2023/12/22 06:24:05;;;;;;;9.50;1.77;;;2.30;1.00;;;;;;5113298;28;20415;-51
2023/12/22 06:26:30;;;;;;;6.17;2.10;;;2.40;99.90;;;;;;5112381;28;20781;-51
2023/12/22 06:28:56;;;;;;;11.50;2.40;;;2.40;1.00;;;;;;5113606;28;20419;-52
2023/12/22 06:31:22;;;;;;;16.70;2.10;;;2.50;1.00;;;;;;5113761;28;20585;-52
2023/12/22 06:33:49;;;;;;;7.87;2.10;;;2.60;99.90;;;;;;5113721;28;20226;-51
2023/12/22 06:36:24;;;;;;;13.87;3.27;;;2.70;99.90;;;;;;5112869;28;20443;-52
2023/12/22 06:38:51;;;;;;;17.97;3.30;;;2.80;1.00;;;;;;5113391;28;20530;-52
2023/12/22 06:41:21;;;;;;;20.20;3.00;;;2.90;1.00;;;;;;5112753;28;20913;-51
2023/12/22 06:43:47;;;;;;;19.93;3.30;;;3.10;99.90;;;;;;5113082;28;20819;-52
2023/12/22 06:46:20;;;;;;;20.60;2.47;;;3.20;99.90;;;;;;5112979;28;20411;-51
2023/12/22 06:48:46;;;;;;;26.77;4.70;;;3.30;99.90;;;;;;5112998;28;20223;-51
2023/12/22 06:51:18;;;;;;;30.70;3.73;;;3.40;31.20;;;;;;5112390;28;20438;-51
2023/12/22 06:53:45;;;;;;;28.27;3.97;;;3.40;24.40;;;;;;5112181;28;20495;-51
2023/12/22 06:56:17;;;;;;;26.57;4.17;;;3.40;1.00;;;;;;5113914;28;20433;-51
2023/12/22 06:58:43;;;;;;;29.43;3.87;;;3.40;1.00;;;;;;5112847;28;20507;-51
2023/12/22 07:01:08;;;;;;;26.13;4.10;;;3.50;1.00;;;;;;5112658;28;20926;-51
2023/12/22 07:03:34;;;;;;;23.83;3.90;;;3.50;25.10;;;;;;5112525;28;20200;-51
2023/12/22 07:06:00;;;;;;;25.63;3.20;;;3.60;1.00;;;;;;5113415;28;20239;-51
2023/12/22 07:08:25;;;;;;;26.13;5.00;;;3.60;3.00;;;;;;5111433;28;20252;-51
2023/12/22 07:10:51;;;;;;;21.67;3.57;;;3.70;1.00;;;;;;5113326;28;20190;-51
2023/12/22 07:13:16;;;;;;;47.57;4.90;;;3.80;1.00;;;;;;5112278;28;20175;-51
2023/12/22 07:15:42;;;;;;;29.90;4.30;;;3.80;1.00;;;;;;5111985;28;20175;-51
2023/12/22 07:18:07;;;;;;;19.83;4.37;;;3.90;1.00;;;;;;5112607;28;20208;-51
2023/12/22 07:20:33;;;;;;;27.23;3.70;;;3.80;1.00;;;;;;5111991;28;20176;-51
2023/12/22 07:22:58;;;;;;;15.40;3.03;;;3.80;1.00;;;;;;5112343;28;20212;-51
2023/12/22 07:25:24;;;;;;;24.30;3.80;;;3.80;1.00;;;;;;5111446;28;20177;-51
2023/12/22 07:27:49;;;;;;;25.20;4.00;;;3.80;1.00;;;;;;5112400;28;20189;-51
2023/12/22 07:30:16;;;;;;;22.60;3.63;;;3.80;1.00;;;;;;5112446;28;20178;-51
2023/12/22 07:32:44;;;;;;;22.47;3.50;;;3.90;1.00;;;;;;5111256;28;20188;-51
2023/12/22 07:35:09;;;;;;;20.03;3.97;;;4.00;1.00;;;;;;5112742;28;20549;-51
2023/12/22 07:37:36;;;;;;;24.23;3.40;;;4.00;1.00;;;;;;5112192;28;20505;-51
2023/12/22 07:40:01;;;;;;;17.00;3.23;;;4.10;1.00;;;;;;5111288;28;20339;-51
2023/12/22 07:42:27;;;;;;;26.23;4.40;;;4.10;1.00;;;;;;5112575;28;20528;-51
2023/12/22 07:44:52;;;;;;;25.17;3.60;;;3.90;99.90;;;;;;5111851;28;20200;-51
2023/12/22 07:47:18;;;;;;;21.57;3.10;;;3.70;99.90;;;;;;5112274;28;20538;-51
2023/12/22 07:49:43;;;;;;;8.90;2.63;;;3.50;1.00;;;;;;5111765;28;20554;-51
2023/12/22 07:52:09;;;;;;;13.13;3.33;;;3.30;1.00;;;;;;5111212;28;20541;-51
2023/12/22 07:54:35;;;;;;;8.37;1.93;;;3.10;1.00;;;;;;5112224;28;20191;-51
2023/12/22 07:57:01;;;;;;;8.17;2.27;;;3.20;1.00;;;;;;5111289;28;20180;-51
2023/12/22 07:59:26;;;;;;;14.43;3.00;;;3.10;1.00;;;;;;5112333;28;20457;-51
2023/12/22 08:01:52;;;;;;;19.50;3.00;;;3.20;1.00;;;;;;5110765;28;20189;-51
2023/12/22 08:04:17;;;;;;;23.27;2.57;;;3.20;1.00;;;;;;5111333;28;20179;-51
2023/12/22 08:06:43;;;;;;;19.40;3.50;;;3.20;1.00;;;;;;5111300;28;21211;-50
2023/12/22 08:09:09;;;;;;;17.57;3.10;;;3.30;1.00;;;;;;5112286;28;20187;-50
2023/12/22 08:11:34;;;;;;;13.07;3.07;;;3.40;1.00;;;;;;5112431;28;20204;-51
2023/12/22 08:14:00;;;;;;;15.70;3.13;;;3.40;1.00;;;;;;5111691;28;20267;-52
2023/12/22 08:16:25;;;;;;;17.03;3.23;;;3.20;1.00;;;;;;5110418;28;20205;-51
2023/12/22 08:18:52;;;;;;;12.70;2.30;;;3.00;1.00;;;;;;5112487;28;20599;-50
2023/12/22 08:21:18;;;;;;;17.20;2.70;;;2.70;99.90;;;;;;5111665;28;20604;-50
2023/12/22 08:23:43;;;;;;;7.50;1.93;;;2.50;1.00;;;;;;5111770;28;20464;-51
2023/12/22 08:26:09;;;;;;;15.47;2.10;;;2.40;1.00;;;;;;5111146;28;20185;-51
2023/12/22 08:28:34;;;;;;;7.70;2.23;;;2.30;1.00;;;;;;5110429;28;20179;-50
2023/12/22 08:31:00;;;;;;;10.40;1.90;;;2.30;99.90;;;;;;5111462;28;20184;-50
2023/12/22 08:33:26;;;;;;;12.10;2.00;;;2.20;99.90;;;;;;5112086;28;20177;-51
2023/12/22 08:35:51;;;;;;;22.43;3.23;;;2.20;99.90;;;;;;5111606;28;20626;-50
2023/12/22 08:38:17;;;;;;;14.97;3.90;;;2.20;99.90;;;;;;5110967;28;20200;-51
2023/12/22 08:40:42;;;;;;;17.30;2.73;;;2.40;1.00;;;;;;5109632;28;20208;-50
2023/12/22 08:43:08;;;;;;;13.10;2.57;;;2.50;99.90;;;;;;5111503;28;20296;-51
2023/12/22 08:45:33;;;;;;;18.07;3.80;;;2.60;99.90;;;;;;5112028;28;20176;-52
2023/12/22 08:48:00;;;;;;;11.30;3.00;;;2.70;1.00;;;;;;5111477;28;20198;-51
2023/12/22 08:50:26;;;;;;;17.47;2.93;;;2.80;99.90;;;;;;5110252;28;20184;-51
2023/12/22 08:52:52;;;;;;;12.67;2.80;;;3.00;1.00;;;;;;5111320;28;20425;-51
2023/12/22 08:55:17;;;;;;;16.33;2.33;;;3.10;18.60;;;;;;5111310;28;20414;-51
2023/12/22 08:57:43;;;;;;;15.40;2.30;;;3.40;99.90;;;;;;5111944;28;20291;-51
2023/12/22 09:00:09;;;;;;;8.90;1.80;;;3.50;1.00;;;;;;5110780;28;20223;-51
2023/12/22 09:02:35;;;;;;;6.00;1.93;;;3.50;99.90;;;;;;5111963;28;20580;-51
2023/12/22 09:05:00;;;;;;;8.27;1.87;;;3.40;99.90;;;;;;5109891;28;20413;-51
2023/12/22 09:07:26;;;;;;;6.17;1.80;;;3.50;99.90;;;;;;5111135;28;20241;-52
2023/12/22 09:09:51;;;;;;;16.33;1.97;;;3.50;99.90;;;;;;5111673;28;20536;-52
2023/12/22 09:12:17;;;;;;;7.13;1.73;;;3.60;99.90;;;;;;5112723;28;20603;-52
2023/12/22 09:14:42;;;;;;;9.50;1.60;;;3.60;99.90;;;;;;5114904;28;20168;-52
2023/12/22 09:17:08;;;;;;;12.80;2.57;;;3.60;99.90;;;;;;5114737;28;20169;-52
2023/12/22 09:19:34;;;;;;;10.10;2.83;;;3.70;46.00;;;;;;5114352;28;20294;-52
2023/12/22 09:21:59;;;;;;;8.90;2.67;;;3.80;44.80;;;;;;5115367;28;20215;-52
2023/12/22 09:24:25;;;;;;;9.80;2.17;;;3.90;16.40;;;;;;5113967;28;20556;-52
2023/12/22 09:26:51;;;;;;;14.33;2.90;;;4.10;1.00;;;;;;5115071;28;20177;-51
2023/12/22 09:29:17;;;;;;;11.40;2.90;;;4.10;1.00;;;;;;5114298;28;20222;-51
2023/12/22 09:31:43;;;;;;;9.20;2.63;;;4.20;1.00;;;;;;5115068;28;20440;-51
2023/12/22 09:34:08;;;;;;;10.70;2.67;;;4.30;1.00;;;;;;5114995;28;20266;-51
2023/12/22 09:36:34;;;;;;;12.60;2.33;;;4.40;1.00;;;;;;5114232;28;20207;-51
2023/12/22 09:38:59;;;;;;;18.53;3.13;;;4.50;1.00;;;;;;5114047;28;20278;-51
2023/12/22 09:41:25;;;;;;;15.13;3.87;;;4.60;1.00;;;;;;5113978;28;20183;-52
2023/12/22 09:43:53;;;;;;;11.53;2.30;;;4.60;1.00;;;;;;5115366;28;20542;-51
2023/12/22 09:46:20;;;;;;;13.70;3.73;;;4.50;1.00;;;;;;5114313;28;20212;-51
2023/12/22 09:48:46;;;;;;;11.57;2.93;;;4.50;1.00;;;;;;5113502;28;20452;-51
2023/12/22 09:51:14;;;;;;;19.57;2.77;;;4.50;1.00;;;;;;5114451;28;20438;-51
2023/12/22 09:53:41;;;;;;;14.90;2.10;;;4.60;1.00;;;;;;5113810;28;20968;-51
2023/12/22 09:56:07;;;;;;;17.20;2.60;;;4.60;1.00;;;;;;5114174;28;20501;-51
2023/12/22 09:58:35;;;;;;;15.90;3.20;;;4.70;1.00;;;;;;5114728;28;20457;-51
2023/12/22 10:01:05;;;;;;;23.40;3.20;;;4.80;1.00;;;;;;5114130;28;20418;-51
2023/12/22 10:03:33;;;;;;;14.87;2.30;;;4.80;1.00;;;;;;5113351;28;20956;-51
2023/12/22 10:05:59;;;;;;;30.07;4.07;;;4.90;1.00;;;;;;5114321;28;20506;-51
2023/12/22 10:08:26;;;;;;;13.43;2.30;;;4.90;1.00;;;;;;5113947;28;20462;-51
2023/12/22 10:10:52;;;;;;;17.20;2.57;;;4.90;1.00;;;;;;5113463;28;20414;-51
2023/12/22 10:13:18;;;;;;;11.80;3.00;;;4.80;1.00;;;;;;5113933;28;20421;-51
2023/12/22 10:15:46;;;;;;;12.70;2.20;;;4.80;1.00;;;;;;5114156;28;20438;-51
2023/12/22 10:18:12;;;;;;;13.00;3.30;;;4.90;1.00;;;;;;5112727;28;20288;-51
2023/12/22 10:20:38;;;;;;;21.47;3.17;;;4.90;1.00;;;;;;5113579;28;20996;-52
2023/12/22 10:23:04;;;;;;;20.73;2.77;;;4.90;1.00;;;;;;5113115;28;20442;-51
2023/12/22 10:25:30;;;;;;;21.83;2.97;;;5.00;1.00;;;;;;5113016;28;20184;-51
2023/12/22 10:27:56;;;;;;;24.57;3.53;;;4.90;1.00;;;;;;5113517;28;20259;-51
2023/12/22 10:30:25;;;;;;;12.23;3.03;;;5.00;1.00;;;;;;5113830;28;20986;-51
2023/12/22 10:32:51;;;;;;;19.13;2.93;;;5.00;1.00;;;;;;5112801;28;20192;-52
2023/12/22 10:35:17;;;;;;;20.67;3.70;;;5.00;1.00;;;;;;5113778;28;20417;-52
2023/12/22 10:37:43;;;;;;;15.53;3.10;;;5.00;1.00;;;;;;5113670;28;20464;-51
2023/12/22 10:40:10;;;;;;;11.83;2.90;;;5.00;1.00;;;;;;5112747;28;20521;-51
2023/12/22 10:42:36;;;;;;;16.23;3.10;;;4.80;1.00;;;;;;5113104;28;20652;-52
2023/12/22 10:45:02;;;;;;;7.23;2.10;;;4.50;64.90;;;;;;5113902;28;20407;-52
2023/12/22 10:47:29;;;;;;;10.53;2.50;;;4.10;99.90;;;;;;5112847;28;20207;-51
2023/12/22 10:49:54;;;;;;;10.37;2.10;;;3.90;99.90;;;;;;5113881;28;20501;-51
2023/12/22 10:52:23;;;;;;;15.23;2.67;;;3.80;99.90;;;;;;5112967;28;20498;-51
2023/12/22 10:54:49;;;;;;;16.30;2.70;;;3.60;99.90;;;;;;5113284;28;20588;-51
2023/12/22 10:57:19;;;;;;;15.07;3.00;;;3.50;1.00;;;;;;5113515;28;20414;-50
2023/12/22 10:59:46;;;;;;;19.43;4.07;;;3.40;99.90;;;;;;5112302;28;20545;-51
2023/12/22 11:02:17;;;;;;;16.40;2.60;;;3.50;99.90;;;;;;5112227;28;20423;-50
2023/12/22 11:04:52;;;;;;;15.93;2.70;;;3.60;1.00;;;;;;5113805;28;20812;-51
2023/12/22 11:07:22;;;;;;;20.50;2.90;;;3.70;99.90;;;;;;5112515;28;20536;-51
2023/12/22 11:09:51;;;;;;;15.60;3.40;;;3.70;99.90;;;;;;5111978;28;20433;-51
2023/12/22 11:12:18;;;;;;;11.43;2.90;;;3.70;99.90;;;;;;5112616;28;20475;-51
2023/12/22 11:14:50;;;;;;;8.80;2.20;;;3.70;99.90;;;;;;5112845;28;20415;-50
2023/12/22 11:17:19;;;;;;;16.20;2.50;;;3.70;99.90;;;;;;5113322;28;20404;-51
2023/12/22 11:19:47;;;;;;;17.83;2.27;;;3.80;99.90;;;;;;5111880;28;20467;-51
2023/12/22 11:22:14;;;;;;;12.87;2.13;;;3.80;99.90;;;;;;5112262;28;20437;-51
2023/12/22 11:24:41;;;;;;;13.43;1.93;;;3.80;99.90;;;;;;5111170;28;20428;-51
2023/12/22 11:27:08;;;;;;;8.20;2.53;;;3.90;1.00;;;;;;5113289;28;20415;-51
2023/12/22 11:29:36;;;;;;;15.83;2.50;;;3.90;99.90;;;;;;5094676;28;20761;-50
2023/12/22 11:32:04;;;;;;;11.50;2.13;;;4.00;99.90;;;;;;5111654;28;20426;-51
2023/12/22 11:34:32;;;;;;;17.07;2.60;;;4.10;1.00;;;;;;5112170;28;20416;-51
2023/12/22 11:37:00;;;;;;;19.10;2.90;;;4.10;1.00;;;;;;5112652;28;20476;-51
2023/12/22 11:39:26;;;;;;;19.63;3.70;;;3.90;99.90;;;;;;5111498;28;20525;-51
2023/12/22 11:41:54;;;;;;;11.13;2.87;;;3.80;1.00;;;;;;5094213;28;20446;-51
2023/12/22 11:44:20;;;;;;;12.43;3.30;;;3.70;1.00;;;;;;5093842;28;20471;-52
2023/12/22 11:46:47;;;;;;;12.10;3.20;;;3.80;1.00;;;;;;5111371;28;20429;-51
2023/12/22 11:49:12;;;;;;;11.87;2.40;;;4.10;1.00;;;;;;5112158;28;20198;-51
2023/12/22 11:51:39;;;;;;;16.90;3.73;;;4.30;99.90;;;;;;5111580;28;20418;-51
2023/12/22 11:54:43;;;;;;;13.87;3.40;;;4.80;99.90;;;;;;5111944;28;20184;-52
2023/12/22 11:57:32;;;;;;;11.70;2.33;;;5.60;99.90;;;;;;5111462;28;20778;-52
2023/12/22 12:00:10;;;;;;;16.43;2.40;;;6.30;25.90;;;;;;5111906;28;20971;-53
2023/12/22 12:02:37;;;;;;;15.37;2.43;;;6.60;1.00;;;;;;5111833;28;20490;-51
2023/12/22 12:05:04;;;;;;;7.87;2.47;;;6.90;1.00;;;;;;5092728;28;20517;-51
2023/12/22 12:07:50;;;;;;;14.00;2.90;;;7.50;1.00;;;;;;5111019;28;20559;-51
2023/12/22 12:10:33;;;;;;;14.83;2.33;;;7.90;1.00;;;;;;5111861;28;20462;-51
2023/12/22 12:13:05;;;;;;;12.13;2.50;;;8.30;1.00;;;;;;5111555;28;20414;-51
2023/12/22 12:15:34;;;;;;;13.10;2.63;;;8.10;1.00;;;;;;5111140;28;20423;-51
2023/12/22 12:18:00;;;;;;;28.53;3.27;;;8.00;1.00;;;;;;5110934;28;20457;-51
2023/12/22 12:20:27;;;;;;;15.13;3.40;;;7.20;1.00;;;;;;5111413;28;20426;-51
2023/12/22 12:22:53;;;;;;;18.40;3.00;;;6.40;1.00;;;;;;5112327;28;20405;-51
2023/12/22 12:25:24;;;;;;;20.83;3.67;;;6.00;1.00;;;;;;5111678;28;20398;-51
2023/12/22 12:28:00;;;;;;;26.73;4.10;;;5.70;1.00;;;;;;5110937;28;20874;-51
2023/12/22 12:30:26;;;;;;;18.40;4.47;;;5.30;1.00;;;;;;5111313;28;20413;-51
2023/12/22 12:32:52;;;;;;;20.20;4.17;;;5.10;1.00;;;;;;5111334;28;20770;-51
2023/12/22 12:35:19;;;;;;;21.33;5.90;;;5.00;1.00;;;;;;5112308;28;20199;-51
2023/12/22 12:37:45;;;;;;;24.20;4.00;;;4.90;1.00;;;;;;5112083;28;20270;-52
2023/12/22 12:40:11;;;;;;;33.63;5.13;;;4.70;6.50;;;;;;5110538;28;20413;-52
2023/12/22 12:42:37;;;;;;;18.10;3.80;;;4.70;16.30;;;;;;5110256;28;20421;-51
2023/12/22 12:45:05;;;;;;;15.20;3.13;;;4.70;30.00;;;;;;5111568;28;20559;-53
2023/12/22 12:47:30;;;;;;;18.50;3.23;;;4.60;55.00;;;;;;5113788;28;20426;-53
2023/12/22 12:49:58;;;;;;;27.90;4.63;;;4.60;92.10;;;;;;5115799;28;20422;-53
2023/12/22 12:52:25;;;;;;;18.33;3.00;;;4.70;99.90;;;;;;5115006;28;20236;-52